Time;durP1;ratioP1;P1;durP2;ratioP2;P2;SDS_P1;SDS_P2;PMS_P1;PMS_P2;Temp;Humidity;BMP_temperature;BMP_pressure;BME280_temperature;BME280_humidity;BME280_pressure;Samples;Min_cycle;Max_cycle;Signal;HPM_P1;HPM_P2
2022/01/12 00:01:44;;;;;;;0.30;0.30;;;-0.60;99.90;;;;;;4920246;29;20452;-83
2022/01/12 00:04:11;;;;;;;0.30;0.30;;;-0.60;99.90;;;;;;4919864;29;21006;-83
2022/01/12 00:06:39;;;;;;;0.97;0.90;;;-0.70;99.90;;;;;;4920251;29;20442;-83
2022/01/12 00:09:07;;;;;;;0.30;0.30;;;-0.70;99.90;;;;;;4921006;29;20451;-83
2022/01/12 00:11:35;;;;;;;0.30;0.30;;;-0.70;99.90;;;;;;4920006;29;20456;-83
2022/01/12 00:14:02;;;;;;;0.73;0.73;;;-0.70;99.90;;;;;;4919985;29;20479;-82
2022/01/12 00:16:29;;;;;;;0.40;0.40;;;-0.70;99.90;;;;;;4919835;29;20440;-83
2022/01/12 00:18:56;;;;;;;0.30;0.30;;;-0.80;99.90;;;;;;4919908;29;20491;-83
2022/01/12 00:21:22;;;;;;;0.30;0.30;;;-0.80;99.90;;;;;;4919929;29;20444;-83
2022/01/12 00:23:49;;;;;;;0.30;0.30;;;-0.80;99.90;;;;;;4919514;29;21007;-82
2022/01/12 00:26:38;;;;;;;1.37;1.27;;;-0.90;99.90;;;;;;4919789;29;20441;-83
2022/01/12 00:34:33;;;;;;;0.37;0.37;;;-1.00;99.90;;;;;;4919575;29;20532;-83
2022/01/12 00:37:00;;;;;;;0.37;0.37;;;-1.00;99.90;;;;;;4919680;29;20452;-83
2022/01/12 00:39:27;;;;;;;0.50;0.50;;;-1.00;99.90;;;;;;4919604;29;20519;-83
2022/01/12 00:41:55;;;;;;;0.40;0.40;;;-1.10;99.90;;;;;;4919294;29;20426;-83
2022/01/12 00:44:25;;;;;;;0.50;0.50;;;-1.10;99.90;;;;;;4919472;29;20480;-84
2022/01/12 00:46:53;;;;;;;1.13;0.80;;;-1.10;99.90;;;;;;4919659;29;20849;-83
2022/01/12 00:49:20;;;;;;;0.30;0.30;;;-1.20;99.90;;;;;;4919176;29;20434;-81
2022/01/12 00:51:47;;;;;;;0.47;0.47;;;-1.20;99.90;;;;;;4919027;29;20431;-81
2022/01/12 00:54:14;;;;;;;0.50;0.50;;;-1.10;99.90;;;;;;4919319;29;20461;-83
2022/01/12 00:56:41;;;;;;;0.30;0.30;;;-1.10;99.90;;;;;;4919604;29;20456;-83
2022/01/12 00:59:09;;;;;;;0.30;0.30;;;-1.20;99.90;;;;;;4919161;29;20500;-83
2022/01/12 01:01:36;;;;;;;0.50;0.50;;;-1.10;99.90;;;;;;4919409;29;20456;-83
2022/01/12 01:04:03;;;;;;;0.70;0.70;;;-1.10;99.90;;;;;;4919161;29;20450;-83
2022/01/12 01:06:30;;;;;;;0.30;0.30;;;-1.10;99.90;;;;;;4919115;29;20430;-82
2022/01/12 01:08:57;;;;;;;0.40;0.40;;;-1.10;99.90;;;;;;4919403;29;20511;-83
2022/01/12 01:11:24;;;;;;;0.50;0.50;;;-1.10;99.90;;;;;;4918757;29;20431;-83
2022/01/12 01:13:57;;;;;;;0.83;0.83;;;-1.00;99.90;;;;;;4918535;29;20491;-83
2022/01/12 01:16:41;;;;;;;0.30;0.30;;;-1.10;99.90;;;;;;4919011;29;20436;-83
2022/01/12 01:27:33;;;;;;;0.30;0.30;;;-1.20;99.90;;;;;;4907578;29;20471;-83
2022/01/12 01:30:00;;;;;;;0.60;0.50;;;-1.10;99.90;;;;;;4918632;29;20419;-81
2022/01/12 01:32:28;;;;;;;0.33;0.33;;;-1.10;99.90;;;;;;4918702;29;20423;-81
2022/01/12 01:34:55;;;;;;;0.30;0.30;;;-1.20;99.90;;;;;;4918555;29;20772;-81
2022/01/12 01:37:21;;;;;;;0.60;0.50;;;-1.20;99.90;;;;;;4918583;29;20448;-81
2022/01/12 01:39:49;;;;;;;0.30;0.30;;;-1.20;99.90;;;;;;4918452;29;20491;-82
2022/01/12 01:42:19;;;;;;;0.30;0.30;;;-1.20;99.90;;;;;;4918447;29;20435;-82
2022/01/12 01:53:20;;;;;;;0.63;0.50;;;-1.20;99.90;;;;;;4918244;29;20490;-81
2022/01/12 01:55:47;;;;;;;0.30;0.30;;;-1.10;99.90;;;;;;4918195;29;20448;-81
2022/01/12 01:58:14;;;;;;;0.40;0.37;;;-1.10;99.90;;;;;;4918184;29;20447;-81
2022/01/12 02:00:42;;;;;;;0.30;0.30;;;-1.10;99.90;;;;;;4918085;29;20462;-81
2022/01/12 02:03:10;;;;;;;0.47;0.47;;;-1.20;99.90;;;;;;4917942;29;20455;-81
2022/01/12 02:05:40;;;;;;;0.50;0.50;;;-1.20;99.90;;;;;;4918029;29;20423;-81
2022/01/12 02:08:06;;;;;;;0.40;0.40;;;-1.20;99.90;;;;;;4918009;29;20460;-81
2022/01/12 02:10:33;;;;;;;0.30;0.30;;;-1.20;99.90;;;;;;4917768;29;20427;-82
2022/01/12 02:13:00;;;;;;;0.40;0.40;;;-1.20;99.90;;;;;;4917141;29;20470;-82
2022/01/12 02:15:27;;;;;;;0.30;0.30;;;-1.20;99.90;;;;;;4917880;29;20534;-82
2022/01/12 02:18:04;;;;;;;0.30;0.30;;;-1.20;99.90;;;;;;4917503;29;20435;-82
2022/01/12 02:39:43;;;;;;;0.30;0.30;;;-1.30;99.90;;;;;;4897376;29;20986;-82
2022/01/12 02:40:05;;;;;;;0.30;0.30;;;-1.30;99.90;;;;;;4916943;29;20545;-82
2022/01/12 02:42:32;;;;;;;0.30;0.30;;;-1.30;99.90;;;;;;4918181;29;20479;-82
2022/01/12 02:50:43;;;;;;;0.30;0.30;;;-1.30;99.90;;;;;;4917196;29;20404;-82
2022/01/12 02:55:56;;;;;;;0.30;0.30;;;-1.40;99.90;;;;;;4917361;29;20393;-82
2022/01/12 02:58:23;;;;;;;0.30;0.30;;;-1.40;99.90;;;;;;4917179;29;20423;-82
2022/01/12 03:01:12;;;;;;;0.30;0.30;;;-1.50;99.90;;;;;;4917164;29;20492;-82
2022/01/12 03:03:42;;;;;;;0.77;0.77;;;-1.50;99.90;;;;;;4917177;29;20454;-82
2022/01/12 03:06:09;;;;;;;0.30;0.30;;;-1.40;99.90;;;;;;4917041;29;20467;-82
2022/01/12 03:08:37;;;;;;;0.30;0.30;;;-1.50;99.90;;;;;;4917331;29;20807;-82
2022/01/12 03:11:06;;;;;;;0.30;0.30;;;-1.50;99.90;;;;;;4917119;29;20551;-82
2022/01/12 03:13:33;;;;;;;0.40;0.40;;;-1.60;99.90;;;;;;4916761;29;20502;-82
2022/01/12 03:16:02;;;;;;;0.30;0.30;;;-1.60;99.90;;;;;;4917102;29;20418;-82
2022/01/12 03:18:29;;;;;;;0.30;0.27;;;-1.60;99.90;;;;;;4917012;29;20467;-84
2022/01/12 03:20:55;;;;;;;0.40;0.40;;;-1.70;99.90;;;;;;4917402;29;20462;-83
2022/01/12 03:23:22;;;;;;;0.30;0.30;;;-1.70;99.90;;;;;;4918314;29;20472;-83
2022/01/12 03:25:49;;;;;;;0.50;0.50;;;-1.70;99.90;;;;;;4921017;29;20942;-83
2022/01/12 03:28:17;;;;;;;0.40;0.40;;;-1.70;99.90;;;;;;4922017;29;20426;-83
2022/01/12 03:30:52;;;;;;;0.30;0.30;;;-1.70;99.90;;;;;;4924486;29;20783;-83
2022/01/12 03:33:34;;;;;;;0.30;0.30;;;-1.70;99.90;;;;;;4921076;29;20453;-83
2022/01/12 03:38:45;;;;;;;0.33;0.33;;;-1.70;99.90;;;;;;4920703;29;20398;-83
2022/01/12 03:41:12;;;;;;;0.40;0.40;;;-1.80;99.90;;;;;;4920567;29;20464;-83
2022/01/12 03:43:41;;;;;;;0.40;0.40;;;-1.70;99.90;;;;;;4920479;29;20453;-83
2022/01/12 03:46:08;;;;;;;0.33;0.33;;;-1.70;99.90;;;;;;4920562;29;20435;-81
2022/01/12 03:48:35;;;;;;;0.40;0.30;;;-1.70;99.90;;;;;;4920525;29;20438;-81
2022/01/12 03:51:02;;;;;;;0.30;0.30;;;-1.70;99.90;;;;;;4920116;29;20942;-80
2022/01/12 03:53:28;;;;;;;0.30;0.30;;;-1.70;99.90;;;;;;4920362;29;20483;-81
2022/01/12 03:55:55;;;;;;;0.70;0.70;;;-1.70;99.90;;;;;;4920367;29;20832;-81
2022/01/12 03:58:22;;;;;;;0.53;0.53;;;-1.70;99.90;;;;;;4920093;29;20942;-81
2022/01/12 04:00:50;;;;;;;0.30;0.30;;;-1.70;99.90;;;;;;4920469;29;20462;-81
2022/01/12 04:03:17;;;;;;;0.30;0.30;;;-1.80;99.90;;;;;;4919906;29;20454;-81
2022/01/12 04:08:25;;;;;;;1.23;0.63;;;-1.80;99.90;;;;;;4918887;29;20394;-82
2022/01/12 04:10:54;;;;;;;0.30;0.30;;;-1.90;99.90;;;;;;4919876;29;20907;-82
2022/01/12 04:13:22;;;;;;;0.33;0.33;;;-1.90;99.90;;;;;;4919629;29;20470;-81
2022/01/12 04:15:52;;;;;;;0.30;0.30;;;-2.00;99.90;;;;;;4920081;29;20827;-81
2022/01/12 04:18:19;;;;;;;0.30;0.30;;;-2.10;99.90;;;;;;4920000;29;20425;-82
2022/01/12 04:20:47;;;;;;;0.43;0.43;;;-2.10;99.90;;;;;;4919789;29;20491;-82
2022/01/12 04:23:20;;;;;;;0.30;0.30;;;-2.10;99.90;;;;;;4919834;29;20541;-82
2022/01/12 04:25:48;;;;;;;0.80;0.80;;;-2.10;99.90;;;;;;4919911;29;20445;-82
2022/01/12 04:28:16;;;;;;;0.30;0.30;;;-2.10;99.90;;;;;;4919828;29;20431;-82
2022/01/12 04:30:43;;;;;;;0.43;0.43;;;-2.10;99.90;;;;;;4919749;29;20448;-82
2022/01/12 04:33:11;;;;;;;0.30;0.30;;;-2.10;99.90;;;;;;4919623;29;20455;-82
2022/01/12 04:35:46;;;;;;;0.30;0.30;;;-2.10;99.90;;;;;;4919024;29;20955;-82
2022/01/12 04:38:13;;;;;;;0.40;0.40;;;-2.10;99.90;;;;;;4919319;29;20890;-82
2022/01/12 04:40:40;;;;;;;0.30;0.30;;;-2.10;99.90;;;;;;4919509;29;20462;-82
2022/01/12 04:43:08;;;;;;;0.30;0.30;;;-2.10;99.90;;;;;;4919454;29;20479;-82
2022/01/12 04:45:45;;;;;;;0.33;0.33;;;-2.10;99.90;;;;;;4919373;29;20456;-82
2022/01/12 04:48:33;;;;;;;2.00;0.73;;;-2.10;99.90;;;;;;4919264;29;20418;-82
2022/01/12 04:51:00;;;;;;;0.40;0.40;;;-2.10;99.90;;;;;;4919156;29;20786;-82
2022/01/12 04:53:27;;;;;;;0.30;0.30;;;-2.10;99.90;;;;;;4918991;29;20491;-82
2022/01/12 04:55:54;;;;;;;0.30;0.30;;;-2.20;99.90;;;;;;4919415;29;20787;-82
2022/01/12 04:58:22;;;;;;;0.30;0.30;;;-2.20;99.90;;;;;;4919306;29;20426;-82
2022/01/12 05:00:51;;;;;;;0.40;0.40;;;-2.20;99.90;;;;;;4918871;29;20830;-82
2022/01/12 05:06:36;;;;;;;0.30;0.30;;;-2.20;99.90;;;;;;4919356;29;20464;-82
2022/01/12 05:09:16;;;;;;;0.40;0.40;;;-2.20;99.90;;;;;;4919074;29;20434;-82
2022/01/12 05:14:35;;;;;;;0.30;0.30;;;-2.20;99.90;;;;;;4918783;29;20798;-82
2022/01/12 05:17:02;;;;;;;0.50;0.50;;;-2.20;99.90;;;;;;4919219;29;20432;-82
2022/01/12 05:19:30;;;;;;;0.30;0.30;;;-2.30;99.90;;;;;;4918913;29;20431;-82
2022/01/12 05:21:57;;;;;;;0.30;0.30;;;-2.30;99.90;;;;;;4918717;29;20838;-82
2022/01/12 05:24:24;;;;;;;0.30;0.30;;;-2.30;99.90;;;;;;4918705;29;20443;-82
2022/01/12 05:26:50;;;;;;;0.30;0.30;;;-2.40;99.90;;;;;;4918685;29;20866;-82
2022/01/12 05:29:17;;;;;;;0.40;0.40;;;-2.40;99.90;;;;;;4918723;29;20438;-83
2022/01/12 05:31:44;;;;;;;4.87;2.83;;;-2.30;99.90;;;;;;4918733;29;20942;-83
2022/01/12 05:34:11;;;;;;;0.30;0.30;;;-2.30;99.90;;;;;;4918175;29;20447;-82
2022/01/12 05:36:39;;;;;;;0.67;0.67;;;-2.30;99.90;;;;;;4918570;29;20462;-82
2022/01/12 05:39:06;;;;;;;0.40;0.40;;;-2.30;99.90;;;;;;4923841;29;20444;-82
2022/01/12 05:41:32;;;;;;;0.30;0.30;;;-2.40;99.90;;;;;;4918713;29;21010;-82
2022/01/12 05:43:59;;;;;;;0.30;0.30;;;-2.40;99.90;;;;;;4918406;29;20446;-82
2022/01/12 05:46:27;;;;;;;0.30;0.30;;;-2.40;99.90;;;;;;4917290;29;20955;-81
2022/01/12 05:51:40;;;;;;;0.40;0.40;;;-2.50;99.90;;;;;;4918414;29;20424;-82
2022/01/12 05:54:06;;;;;;;0.80;0.80;;;-2.50;99.90;;;;;;4918361;29;20459;-82
2022/01/12 05:56:33;;;;;;;0.30;0.30;;;-2.50;99.90;;;;;;4917979;29;20433;-82
2022/01/12 05:59:00;;;;;;;0.30;0.30;;;-2.50;99.90;;;;;;4918322;29;20456;-83
2022/01/12 06:01:27;;;;;;;0.30;0.30;;;-2.60;99.90;;;;;;4920451;29;20819;-82
2022/01/12 06:03:54;;;;;;;0.40;0.40;;;-2.60;99.90;;;;;;4917889;29;20478;-81
2022/01/12 06:06:21;;;;;;;0.40;0.40;;;-2.50;99.90;;;;;;4918015;29;20456;-81
2022/01/12 06:08:49;;;;;;;0.30;0.30;;;-2.50;99.90;;;;;;4917667;29;20923;-81
2022/01/12 06:11:16;;;;;;;0.30;0.20;;;-2.50;99.90;;;;;;4917673;29;20824;-81
2022/01/12 06:13:42;;;;;;;0.30;0.30;;;-2.50;99.90;;;;;;4917468;29;20485;-81
2022/01/12 06:16:09;;;;;;;0.30;0.30;;;-2.50;99.90;;;;;;4917938;29;20423;-81
2022/01/12 06:18:36;;;;;;;0.70;0.60;;;-2.50;99.90;;;;;;4918038;29;20438;-81
2022/01/12 06:21:03;;;;;;;0.30;0.30;;;-2.50;99.90;;;;;;4917372;29;20899;-82
2022/01/12 06:23:29;;;;;;;1.40;1.27;;;-2.60;99.90;;;;;;4917697;29;20458;-82
2022/01/12 06:25:57;;;;;;;0.30;0.30;;;-2.70;99.90;;;;;;4917746;29;20419;-82
2022/01/12 06:28:37;;;;;;;0.30;0.30;;;-2.60;99.90;;;;;;4917662;29;20454;-82
2022/01/12 06:31:13;;;;;;;0.40;0.40;;;-2.60;99.90;;;;;;4917600;29;20407;-82
2022/01/12 06:33:42;;;;;;;0.30;0.30;;;-2.50;99.90;;;;;;4917717;29;20472;-82
2022/01/12 06:36:09;;;;;;;0.90;0.90;;;-2.60;99.90;;;;;;4917518;29;20438;-82
2022/01/12 06:38:37;;;;;;;0.30;0.30;;;-2.60;99.90;;;;;;4917586;29;20460;-82
2022/01/12 06:41:05;;;;;;;0.73;0.73;;;-2.60;99.90;;;;;;4917472;29;20491;-82
2022/01/12 06:43:32;;;;;;;0.30;0.30;;;-2.60;99.90;;;;;;4917513;29;20489;-82
2022/01/12 06:45:59;;;;;;;0.30;0.30;;;-2.60;99.90;;;;;;4917239;29;20811;-82
2022/01/12 06:48:26;;;;;;;0.40;0.40;;;-2.60;99.90;;;;;;4917020;29;20953;-83
2022/01/12 06:50:52;;;;;;;0.40;0.40;;;-2.70;99.90;;;;;;4917150;29;20430;-82
2022/01/12 06:53:19;;;;;;;0.53;0.53;;;-2.70;99.90;;;;;;4917303;29;20442;-82
2022/01/12 06:55:46;;;;;;;0.30;0.30;;;-2.70;99.90;;;;;;4917258;29;20441;-82
2022/01/12 06:58:14;;;;;;;0.30;0.30;;;-2.60;99.90;;;;;;4916975;29;20774;-82
2022/01/12 07:00:41;;;;;;;0.30;0.30;;;-2.70;99.90;;;;;;4916921;29;20845;-82
2022/01/12 07:03:08;;;;;;;0.40;0.40;;;-2.70;99.90;;;;;;4916824;29;20987;-83
2022/01/12 07:05:35;;;;;;;0.40;0.40;;;-2.70;99.90;;;;;;4917168;29;20441;-82
2022/01/12 07:08:02;;;;;;;0.30;0.30;;;-2.70;99.90;;;;;;4917122;29;20456;-82
2022/01/12 07:10:29;;;;;;;0.40;0.40;;;-2.70;99.90;;;;;;4916893;29;20419;-81
2022/01/12 07:12:55;;;;;;;0.30;0.30;;;-2.70;99.90;;;;;;4916703;29;20874;-81
2022/01/12 07:15:23;;;;;;;0.67;0.67;;;-2.70;99.90;;;;;;4917055;29;20434;-81
2022/01/12 07:17:50;;;;;;;1.17;0.97;;;-2.60;99.90;;;;;;4917044;29;20437;-81
2022/01/12 07:20:17;;;;;;;0.37;0.37;;;-2.50;99.90;;;;;;4917534;29;20463;-81
2022/01/12 07:22:44;;;;;;;0.30;0.30;;;-2.50;99.90;;;;;;4916966;29;20415;-81
2022/01/12 07:25:11;;;;;;;0.30;0.30;;;-2.50;99.90;;;;;;4916962;29;20444;-82
2022/01/12 07:27:40;;;;;;;3.80;0.93;;;-2.40;99.90;;;;;;4916669;29;20415;-82
2022/01/12 07:30:08;;;;;;;0.30;0.30;;;-2.30;99.90;;;;;;4916965;29;20441;-82
2022/01/12 07:32:36;;;;;;;0.60;0.50;;;-2.40;99.90;;;;;;4916551;29;20982;-82
2022/01/12 07:35:03;;;;;;;0.30;0.30;;;-2.40;99.90;;;;;;4916923;29;20448;-82
2022/01/12 07:37:30;;;;;;;0.30;0.30;;;-2.30;99.90;;;;;;4916926;29;20463;-82
2022/01/12 07:39:57;;;;;;;0.40;0.40;;;-2.30;99.90;;;;;;4921475;29;20463;-82
2022/01/12 07:42:24;;;;;;;0.40;0.40;;;-2.30;99.90;;;;;;4916959;29;20491;-82
2022/01/12 07:44:58;;;;;;;0.93;0.93;;;-2.30;99.90;;;;;;4916747;29;20446;-82
2022/01/12 07:47:25;;;;;;;0.50;0.50;;;-2.20;99.90;;;;;;4916518;29;20444;-82
2022/01/12 07:49:53;;;;;;;0.50;0.50;;;-2.20;99.90;;;;;;4917270;29;20433;-82
2022/01/12 07:52:20;;;;;;;0.30;0.30;;;-2.20;99.90;;;;;;4916605;29;20415;-82
2022/01/12 07:54:46;;;;;;;0.50;0.50;;;-2.20;99.90;;;;;;4916709;29;20465;-82
2022/01/12 07:57:13;;;;;;;0.43;0.43;;;-2.10;99.90;;;;;;4916800;29;20466;-82
2022/01/12 07:59:40;;;;;;;0.40;0.40;;;-2.10;99.90;;;;;;4916346;29;20983;-82
2022/01/12 08:02:07;;;;;;;0.37;0.37;;;-2.10;99.90;;;;;;4916840;29;20985;-82
2022/01/12 08:04:34;;;;;;;0.83;0.83;;;-2.00;99.90;;;;;;4916654;29;20451;-82
2022/01/12 08:07:04;;;;;;;0.30;0.30;;;-1.90;99.90;;;;;;4916628;29;20419;-82
2022/01/12 08:09:31;;;;;;;3.33;1.00;;;-1.90;99.90;;;;;;4917480;29;20463;-82
2022/01/12 08:11:57;;;;;;;0.30;0.30;;;-1.90;99.90;;;;;;4919883;29;20462;-81
2022/01/12 08:14:24;;;;;;;0.40;0.40;;;-1.80;99.90;;;;;;4918831;29;20478;-81
2022/01/12 08:16:51;;;;;;;0.30;0.30;;;-1.80;99.90;;;;;;4918817;29;20434;-81
2022/01/12 08:19:20;;;;;;;0.47;0.47;;;-1.70;99.90;;;;;;4918790;29;20463;-81
2022/01/12 08:21:47;;;;;;;0.30;0.30;;;-1.60;99.90;;;;;;4918655;29;20495;-81
2022/01/12 08:24:16;;;;;;;0.30;0.30;;;-1.50;99.90;;;;;;4918577;29;20987;-82
2022/01/12 08:26:43;;;;;;;0.50;0.50;;;-1.40;99.90;;;;;;4918700;29;20441;-81
2022/01/12 08:29:14;;;;;;;1.07;0.40;;;-1.30;99.90;;;;;;4918291;29;20794;-81
2022/01/12 08:31:40;;;;;;;0.50;0.50;;;-1.30;99.90;;;;;;4918579;29;21024;-81
2022/01/12 08:34:08;;;;;;;0.33;0.33;;;-1.10;99.90;;;;;;4918388;29;21027;-81
2022/01/12 08:36:35;;;;;;;0.30;0.30;;;-1.00;99.90;;;;;;4918511;29;20507;-81
2022/01/12 08:39:02;;;;;;;0.30;0.30;;;-1.00;99.90;;;;;;4918495;29;20430;-81
2022/01/12 08:41:31;;;;;;;0.30;0.30;;;-0.90;99.90;;;;;;4918452;29;20483;-81
2022/01/12 08:43:57;;;;;;;0.40;0.40;;;-0.70;99.90;;;;;;4918398;29;20454;-81
2022/01/12 08:46:24;;;;;;;0.30;0.30;;;-0.60;99.90;;;;;;4918100;29;20978;-81
2022/01/12 08:48:51;;;;;;;0.30;0.30;;;-0.50;99.90;;;;;;4918105;29;20425;-80
2022/01/12 08:51:18;;;;;;;0.30;0.30;;;-0.40;99.90;;;;;;4918244;29;20463;-81
2022/01/12 08:53:44;;;;;;;0.30;0.30;;;-0.30;99.90;;;;;;4918094;29;20467;-81
2022/01/12 08:56:11;;;;;;;0.83;0.83;;;-0.30;99.90;;;;;;4917949;29;20927;-81
2022/01/12 08:58:40;;;;;;;0.30;0.30;;;-0.30;99.90;;;;;;4917962;29;20446;-81
2022/01/12 09:01:09;;;;;;;0.30;0.20;;;-0.20;99.90;;;;;;4918145;29;20558;-81
2022/01/12 09:03:36;;;;;;;0.50;0.50;;;-0.20;99.90;;;;;;4918016;29;20899;-81
2022/01/12 09:06:03;;;;;;;0.67;0.50;;;-0.10;99.90;;;;;;4918206;29;20460;-81
2022/01/12 09:08:30;;;;;;;0.30;0.30;;;-0.10;99.90;;;;;;4918000;29;20948;-81
2022/01/12 09:10:57;;;;;;;0.30;0.30;;;-0.10;99.90;;;;;;4918031;29;20464;-80
2022/01/12 09:13:23;;;;;;;0.40;0.40;;;-0.20;99.90;;;;;;4882905;29;1049041;-80
2022/01/12 09:15:51;;;;;;;0.30;0.30;;;-0.20;99.90;;;;;;4918966;29;20211;-81
2022/01/12 09:18:19;;;;;;;0.37;0.37;;;-0.10;99.90;;;;;;4918686;29;20432;-81
2022/01/12 09:20:46;;;;;;;0.30;0.30;;;-0.10;99.90;;;;;;4917906;29;20456;-80
2022/01/12 09:23:13;;;;;;;0.30;0.30;;;0.00;99.90;;;;;;4918520;29;20499;-81
2022/01/12 09:25:41;;;;;;;0.57;0.57;;;0.10;99.90;;;;;;4918781;29;20460;-81
2022/01/12 09:28:08;;;;;;;0.30;0.30;;;0.20;99.90;;;;;;4918682;29;20452;-80
2022/01/12 09:30:36;;;;;;;0.30;0.30;;;0.50;99.90;;;;;;4918717;29;20460;-80
2022/01/12 09:33:04;;;;;;;0.30;0.30;;;0.80;99.90;;;;;;4918599;29;20479;-80
2022/01/12 09:35:31;;;;;;;0.60;0.60;;;1.10;99.90;;;;;;4918588;29;20822;-80
2022/01/12 09:37:58;;;;;;;0.30;0.30;;;1.50;99.90;;;;;;4918531;29;20448;-80
2022/01/12 09:40:25;;;;;;;0.70;0.47;;;2.00;99.90;;;;;;4918572;29;20437;-82
2022/01/12 09:42:53;;;;;;;1.27;0.60;;;2.50;99.90;;;;;;4918677;29;20474;-80
2022/01/12 09:45:20;;;;;;;0.83;0.83;;;3.00;99.90;;;;;;4918755;29;20531;-80
2022/01/12 09:47:50;;;;;;;0.30;0.30;;;3.20;99.90;;;;;;4918301;29;20448;-79
2022/01/12 09:50:24;;;;;;;0.30;0.20;;;3.20;99.90;;;;;;4918168;29;20417;-80
2022/01/12 09:52:52;;;;;;;0.30;0.30;;;3.20;99.90;;;;;;4918065;29;20923;-80
2022/01/12 09:55:19;;;;;;;0.70;0.70;;;3.60;99.90;;;;;;4918046;29;20413;-80
2022/01/12 09:57:46;;;;;;;0.40;0.40;;;3.80;99.90;;;;;;4918188;29;20447;-80
2022/01/12 10:00:16;;;;;;;0.40;0.40;;;4.50;99.90;;;;;;4918205;29;20436;-80
2022/01/12 10:02:43;;;;;;;0.30;0.20;;;5.60;99.90;;;;;;4917693;29;20984;-80
2022/01/12 10:05:11;;;;;;;0.30;0.30;;;6.90;99.90;;;;;;4918773;29;20445;-80
2022/01/12 10:07:39;;;;;;;0.70;0.70;;;8.30;99.90;;;;;;4918384;29;20447;-80
2022/01/12 10:10:09;;;;;;;0.30;0.30;;;9.20;98.40;;;;;;4917976;29;20445;-81
2022/01/12 10:12:36;;;;;;;0.40;0.40;;;10.20;93.50;;;;;;4918092;29;20508;-81
2022/01/12 10:15:10;;;;;;;0.30;0.30;;;11.20;88.90;;;;;;4917906;29;20464;-81
2022/01/12 10:17:39;;;;;;;0.63;0.63;;;12.10;78.50;;;;;;4918153;29;20449;-81
2022/01/12 10:20:07;;;;;;;5.53;1.30;;;12.60;73.40;;;;;;4917964;29;20452;-79
2022/01/12 10:22:35;;;;;;;3.03;0.87;;;12.30;70.10;;;;;;4917641;29;20843;-80
2022/01/12 10:25:14;;;;;;;1.10;1.00;;;11.60;69.30;;;;;;4917602;29;20476;-81
2022/01/12 10:27:41;;;;;;;0.60;0.60;;;10.50;70.80;;;;;;4917785;29;20474;-81
2022/01/12 10:30:19;;;;;;;0.50;0.40;;;9.10;75.20;;;;;;4917659;29;20451;-80
2022/01/12 10:32:45;;;;;;;0.77;0.60;;;8.00;78.50;;;;;;4917227;29;20436;-80
2022/01/12 10:35:12;;;;;;;0.30;0.30;;;6.90;81.00;;;;;;4917626;29;20443;-80
2022/01/12 10:37:39;;;;;;;0.40;0.40;;;6.10;85.50;;;;;;4918225;29;20805;-80
2022/01/12 10:40:09;;;;;;;0.40;0.40;;;5.30;88.20;;;;;;4917246;29;20448;-80
2022/01/12 10:42:39;;;;;;;0.30;0.30;;;4.80;91.10;;;;;;4917650;29;20508;-80
2022/01/12 10:45:06;;;;;;;0.30;0.30;;;4.50;92.60;;;;;;4917175;29;20551;-80
2022/01/12 10:47:33;;;;;;;0.30;0.30;;;4.40;93.30;;;;;;4917623;29;20445;-80
2022/01/12 10:50:04;;;;;;;0.60;0.60;;;4.20;94.70;;;;;;4917166;29;20421;-80
2022/01/12 10:52:35;;;;;;;0.67;0.63;;;4.20;95.30;;;;;;4917360;29;20440;-80
2022/01/12 10:55:05;;;;;;;0.40;0.30;;;4.00;96.40;;;;;;4917253;29;20479;-80
2022/01/12 10:57:35;;;;;;;0.30;0.30;;;3.90;97.40;;;;;;4917034;29;20424;-80
2022/01/12 11:00:18;;;;;;;0.90;0.87;;;3.80;97.70;;;;;;4917245;29;20512;-80
2022/01/12 11:02:47;;;;;;;0.30;0.30;;;3.50;98.60;;;;;;4916802;29;20988;-79
2022/01/12 11:05:14;;;;;;;0.40;0.40;;;3.30;99.90;;;;;;4916972;29;20440;-80
2022/01/12 11:07:40;;;;;;;0.50;0.50;;;3.10;99.90;;;;;;4916914;29;21021;-80
2022/01/12 11:10:09;;;;;;;0.40;0.30;;;2.90;99.90;;;;;;4917204;29;20440;-80
2022/01/12 11:12:38;;;;;;;0.83;0.30;;;2.80;99.90;;;;;;4917059;29;20539;-80
2022/01/12 11:15:07;;;;;;;0.30;0.30;;;2.70;99.90;;;;;;4916745;29;20935;-80
2022/01/12 11:17:34;;;;;;;0.50;0.50;;;2.60;99.90;;;;;;4917212;29;20431;-80
2022/01/12 11:20:08;;;;;;;0.30;0.30;;;2.60;99.90;;;;;;4917149;29;20442;-80
2022/01/12 11:22:50;;;;;;;0.47;0.47;;;2.40;99.90;;;;;;4916933;29;20502;-80
2022/01/12 11:25:19;;;;;;;0.50;0.50;;;2.30;99.90;;;;;;4917015;29;20436;-80
2022/01/12 11:27:51;;;;;;;0.30;0.30;;;2.20;99.90;;;;;;4916834;29;20868;-80
2022/01/12 11:30:20;;;;;;;0.30;0.30;;;2.20;99.90;;;;;;4916979;29;20444;-80
2022/01/12 11:32:56;;;;;;;0.40;0.33;;;2.30;99.90;;;;;;4917318;29;20861;-80
2022/01/12 11:35:27;;;;;;;0.30;0.30;;;2.30;99.90;;;;;;4917030;29;20443;-80
2022/01/12 11:37:57;;;;;;;0.80;0.80;;;2.30;99.90;;;;;;4917059;29;20492;-80
2022/01/12 11:40:33;;;;;;;1.50;0.40;;;2.30;99.90;;;;;;4917032;29;20451;-80
2022/01/12 11:43:02;;;;;;;0.30;0.30;;;2.30;99.90;;;;;;4916661;29;21034;-80
2022/01/12 11:45:28;;;;;;;0.30;0.30;;;2.30;99.90;;;;;;4919441;29;20452;-80
2022/01/12 11:47:55;;;;;;;0.30;0.30;;;2.20;99.90;;;;;;4920574;29;20451;-80
2022/01/12 11:50:22;;;;;;;0.40;0.40;;;2.20;99.90;;;;;;4920220;29;20417;-80
2022/01/12 11:52:49;;;;;;;0.80;0.80;;;2.20;99.90;;;;;;4920258;29;20435;-80
2022/01/12 11:55:18;;;;;;;0.30;0.30;;;2.20;99.90;;;;;;4920425;29;20451;-80
2022/01/12 11:57:49;;;;;;;0.30;0.20;;;2.30;99.90;;;;;;4920423;29;20417;-79
2022/01/12 12:00:19;;;;;;;0.40;0.40;;;2.30;99.90;;;;;;4920402;29;20451;-79
2022/01/12 12:02:47;;;;;;;0.70;0.70;;;2.20;99.90;;;;;;4920154;29;20480;-78
2022/01/12 12:05:17;;;;;;;3.13;0.90;;;2.10;99.90;;;;;;4920243;29;20534;-79
2022/01/12 12:07:46;;;;;;;0.80;0.80;;;2.00;99.90;;;;;;4920243;29;20507;-79
2022/01/12 12:10:15;;;;;;;0.57;0.57;;;1.80;99.90;;;;;;4920234;29;20819;-79
2022/01/12 12:12:42;;;;;;;0.30;0.30;;;1.80;99.90;;;;;;4919909;29;20471;-78
2022/01/12 12:15:11;;;;;;;0.37;0.37;;;1.80;99.90;;;;;;4920123;29;20492;-78
2022/01/12 12:17:42;;;;;;;0.63;0.63;;;1.70;99.90;;;;;;4919841;29;20473;-79
2022/01/12 12:20:12;;;;;;;0.30;0.30;;;1.60;99.90;;;;;;4919752;29;20444;-79
2022/01/12 12:22:41;;;;;;;0.40;0.40;;;1.60;99.90;;;;;;4920335;29;20844;-79
2022/01/12 12:25:10;;;;;;;0.30;0.30;;;1.60;99.90;;;;;;4920205;29;20467;-79
2022/01/12 12:27:39;;;;;;;0.30;0.27;;;1.60;99.90;;;;;;4919836;29;20410;-79
2022/01/12 12:30:07;;;;;;;0.30;0.30;;;1.50;99.90;;;;;;4919881;29;20534;-79
2022/01/12 12:32:36;;;;;;;0.50;0.50;;;1.50;99.90;;;;;;4919508;29;20391;-79
2022/01/12 12:35:07;;;;;;;0.60;0.43;;;1.60;99.90;;;;;;4919516;29;20887;-79
2022/01/12 12:37:36;;;;;;;0.30;0.30;;;1.50;99.90;;;;;;4919711;29;20464;-79
2022/01/12 12:40:17;;;;;;;0.30;0.30;;;1.50;99.90;;;;;;4919670;29;20468;-79
2022/01/12 12:42:45;;;;;;;0.40;0.40;;;1.50;99.90;;;;;;4919551;29;20457;-79
2022/01/12 12:45:11;;;;;;;1.13;0.60;;;1.50;99.90;;;;;;4919621;29;20433;-79
2022/01/12 12:47:38;;;;;;;0.30;0.20;;;1.50;99.90;;;;;;4919560;29;20420;-79
2022/01/12 12:50:12;;;;;;;0.40;0.40;;;1.40;99.90;;;;;;4919433;29;20432;-80
2022/01/12 12:52:40;;;;;;;0.50;0.50;;;1.30;99.90;;;;;;4919666;29;20450;-80
2022/01/12 12:55:12;;;;;;;0.40;0.40;;;1.20;99.90;;;;;;4918822;29;20948;-79
2022/01/12 12:57:47;;;;;;;0.30;0.30;;;1.20;99.90;;;;;;4919096;29;20419;-79
2022/01/12 13:00:17;;;;;;;0.30;0.30;;;1.10;99.90;;;;;;4919237;29;20415;-79
2022/01/12 13:02:46;;;;;;;0.30;0.30;;;1.10;99.90;;;;;;4919206;29;20456;-79
2022/01/12 13:05:16;;;;;;;1.23;0.50;;;1.10;99.90;;;;;;4920182;29;20805;-80
2022/01/12 13:07:44;;;;;;;0.30;0.30;;;1.10;99.90;;;;;;4919210;29;20464;-79
2022/01/12 13:10:14;;;;;;;0.30;0.30;;;1.10;99.90;;;;;;4918864;29;20456;-80
2022/01/12 13:12:42;;;;;;;2.23;0.57;;;1.10;99.90;;;;;;4918998;29;20442;-80
2022/01/12 13:15:11;;;;;;;0.30;0.20;;;1.10;99.90;;;;;;4918820;29;20789;-80
2022/01/12 13:17:40;;;;;;;0.53;0.53;;;1.10;99.90;;;;;;4919089;29;20528;-80
2022/01/12 13:23:04;;;;;;;0.53;0.53;;;1.10;99.90;;;;;;4918641;29;20465;-80
2022/01/12 13:25:31;;;;;;;1.00;0.60;;;1.10;99.90;;;;;;4918786;29;20428;-80
2022/01/12 13:28:01;;;;;;;0.30;0.30;;;1.10;99.90;;;;;;4919205;29;20441;-80
2022/01/12 13:38:26;;;;;;;0.30;0.30;;;1.10;99.90;;;;;;5023654;23;20482;-81
2022/01/12 13:40:55;;;;;;;0.60;0.60;;;1.10;99.90;;;;;;4918647;29;20452;-81
2022/01/12 13:43:22;;;;;;;0.30;0.30;;;1.20;99.90;;;;;;4918165;29;21087;-79
2022/01/12 13:45:57;;;;;;;0.30;0.30;;;1.20;99.90;;;;;;4918510;29;20441;-79
2022/01/12 13:48:30;;;;;;;0.40;0.30;;;1.20;99.90;;;;;;4918187;29;20491;-79
2022/01/12 13:50:58;;;;;;;0.40;0.40;;;1.20;99.90;;;;;;4918115;29;20807;-79
2022/01/12 13:53:33;;;;;;;0.40;0.40;;;1.20;99.90;;;;;;4918338;29;20833;-79
2022/01/12 13:56:00;;;;;;;0.30;0.30;;;1.20;99.90;;;;;;4918356;29;20440;-79
2022/01/12 13:58:28;;;;;;;0.40;0.40;;;1.20;99.90;;;;;;4918467;29;20440;-79
2022/01/12 14:01:05;;;;;;;0.30;0.30;;;1.20;99.90;;;;;;4918252;29;20440;-80
2022/01/12 14:03:40;;;;;;;0.43;0.43;;;1.20;99.90;;;;;;4917778;29;20995;-79
2022/01/12 14:06:14;;;;;;;0.33;0.33;;;1.20;99.90;;;;;;4917859;29;20973;-79
2022/01/12 14:08:52;;;;;;;0.90;0.43;;;1.20;99.90;;;;;;4917509;29;20441;-79
2022/01/12 14:11:19;;;;;;;0.30;0.30;;;1.20;99.90;;;;;;4918005;29;20451;-79